Time;durP1;ratioP1;P1;durP2;ratioP2;P2;SDS_P1;SDS_P2;PMS_P1;PMS_P2;Temp;Humidity;BMP_temperature;BMP_pressure;BME280_temperature;BME280_humidity;BME280_pressure;Samples;Min_cycle;Max_cycle;Signal;HPM_P1;HPM_P2
2023/02/21 02:15:21;;;;;;;6.13;2.55;;;10.30;57.70;;;;;;5015982;28;20422;-85
2023/02/21 02:18:17;;;;;;;6.30;2.60;;;10.30;57.70;;;;;;5015877;28;20032;-85
2023/02/21 02:21:01;;;;;;;6.15;2.05;;;10.30;57.60;;;;;;5015118;28;20080;-85
2023/02/21 02:23:48;;;;;;;4.60;1.85;;;10.30;57.60;;;;;;5015700;28;20109;-85
2023/02/21 02:26:26;;;;;;;5.57;2.42;;;10.30;57.50;;;;;;5017825;28;20093;-85
2023/02/21 02:29:39;;;;;;;4.10;2.08;;;10.40;57.50;;;;;;5014647;28;20491;-85
2023/02/21 02:32:35;;;;;;;5.97;2.10;;;10.30;57.40;;;;;;5014223;28;20533;-84
2023/02/21 02:35:19;;;;;;;6.30;1.98;;;10.30;57.30;;;;;;5014183;28;20014;-85
2023/02/21 02:37:44;;;;;;;5.87;2.23;;;10.30;57.40;;;;;;5013896;28;20049;-85
2023/02/21 02:40:22;;;;;;;4.88;1.98;;;10.30;57.60;;;;;;5015268;28;20277;-84
2023/02/21 02:43:09;;;;;;;7.57;2.13;;;10.30;57.70;;;;;;5013945;28;20089;-88
2023/02/21 02:46:13;;;;;;;4.53;2.25;;;10.20;57.70;;;;;;5013696;28;20475;-84
2023/02/21 02:48:45;;;;;;;5.25;2.28;;;10.20;57.70;;;;;;4957770;28;20070;-85
2023/02/21 02:51:14;;;;;;;5.43;2.50;;;10.20;57.70;;;;;;4957321;28;20043;-84
2023/02/21 02:53:40;;;;;;;5.97;2.20;;;10.20;57.70;;;;;;4957520;28;20468;-84
2023/02/21 02:56:15;;;;;;;6.15;2.67;;;10.10;57.70;;;;;;4974038;28;20037;-85
2023/02/21 02:58:51;;;;;;;2.70;1.85;;;10.10;57.80;;;;;;4973782;28;20034;-85
2023/02/21 03:01:22;;;;;;;5.10;2.10;;;10.10;57.80;;;;;;4973672;28;20035;-84
2023/02/21 03:04:12;;;;;;;6.28;1.98;;;10.10;58.40;;;;;;4957524;28;20041;-84
2023/02/21 03:06:52;;;;;;;6.30;1.83;;;10.10;57.80;;;;;;4957687;28;20073;-86
2023/02/21 03:09:28;;;;;;;4.20;1.80;;;10.10;57.80;;;;;;4973524;28;20147;-84
2023/02/21 03:12:14;;;;;;;4.00;1.73;;;10.20;57.80;;;;;;4960377;28;20051;-85
2023/02/21 03:14:52;;;;;;;3.85;1.90;;;10.20;57.60;;;;;;4966740;28;20110;-85
2023/02/21 03:17:22;;;;;;;4.07;2.03;;;10.20;57.60;;;;;;4959688;28;20062;-85
2023/02/21 03:19:52;;;;;;;3.08;2.10;;;10.20;57.50;;;;;;4957287;28;20034;-93
2023/02/21 03:22:22;;;;;;;5.32;2.28;;;10.20;57.40;;;;;;4957861;28;20114;-90
2023/02/21 03:24:50;;;;;;;3.03;2.25;;;10.20;57.30;;;;;;4998008;28;20504;-85
2023/02/21 03:27:18;;;;;;;8.23;2.05;;;10.20;57.30;;;;;;5013181;28;20106;-84
2023/02/21 03:29:45;;;;;;;6.85;2.35;;;10.30;57.40;;;;;;5012972;28;20395;-84
2023/02/21 03:32:37;;;;;;;8.30;2.72;;;10.30;57.20;;;;;;5013098;28;20053;-93
2023/02/21 03:35:04;;;;;;;9.18;2.40;;;10.20;57.20;;;;;;5012839;28;20033;-85
2023/02/21 03:37:32;;;;;;;6.28;2.70;;;10.20;57.20;;;;;;5012730;28;20523;-84
2023/02/21 03:39:58;;;;;;;3.63;2.30;;;10.20;57.20;;;;;;5013175;28;20056;-84
2023/02/21 03:42:24;;;;;;;5.00;2.35;;;10.20;57.20;;;;;;5014207;28;20018;-92
2023/02/21 03:44:54;;;;;;;7.38;2.97;;;10.20;57.20;;;;;;5013428;28;20113;-85
2023/02/21 03:47:23;;;;;;;6.38;2.17;;;10.20;57.20;;;;;;5017691;28;20026;-84
2023/02/21 03:49:55;;;;;;;4.85;2.35;;;10.20;57.20;;;;;;5014428;28;20042;-84
2023/02/21 03:52:21;;;;;;;4.88;2.00;;;10.20;57.20;;;;;;5014004;28;20061;-89
2023/02/21 03:54:47;;;;;;;4.28;2.10;;;10.20;57.20;;;;;;5015086;28;20030;-89
2023/02/21 03:57:12;;;;;;;6.53;2.10;;;10.20;57.20;;;;;;5016127;28;20041;-89
2023/02/21 03:59:38;;;;;;;7.13;2.17;;;10.20;57.00;;;;;;5016931;28;20047;-85
2023/02/21 04:02:04;;;;;;;9.98;2.80;;;10.20;57.00;;;;;;5016917;28;20022;-85
2023/02/21 04:04:30;;;;;;;4.85;2.72;;;10.20;56.90;;;;;;5016594;28;20049;-84
2023/02/21 04:06:55;;;;;;;3.85;2.20;;;10.20;56.90;;;;;;5016861;28;20033;-89
2023/02/21 04:09:22;;;;;;;5.32;2.50;;;10.20;56.90;;;;;;5016026;28;20034;-86
2023/02/21 04:11:47;;;;;;;3.85;2.10;;;10.20;56.80;;;;;;5017713;28;20034;-85
2023/02/21 04:14:14;;;;;;;10.63;2.42;;;10.20;56.80;;;;;;5017840;28;20022;-94
2023/02/21 04:16:41;;;;;;;5.57;1.80;;;10.20;56.80;;;;;;5007508;28;20473;-87
2023/02/21 04:19:06;;;;;;;5.13;2.25;;;10.20;56.70;;;;;;4999356;28;20408;-85
2023/02/21 04:21:32;;;;;;;6.45;2.40;;;10.20;56.70;;;;;;5000336;28;20117;-87
2023/02/21 04:23:58;;;;;;;7.05;2.30;;;10.20;56.70;;;;;;5002954;28;20022;-84
2023/02/21 04:26:24;;;;;;;3.30;1.83;;;10.20;56.70;;;;;;5022176;28;20429;-81
2023/02/21 04:28:51;;;;;;;4.28;2.15;;;10.20;56.70;;;;;;5018746;28;20038;-82
2023/02/21 04:31:17;;;;;;;5.75;2.28;;;10.20;56.60;;;;;;5017854;28;20053;-84
2023/02/21 04:33:43;;;;;;;4.55;2.20;;;10.20;56.70;;;;;;5017555;28;20116;-84
2023/02/21 04:36:09;;;;;;;10.40;2.10;;;10.20;56.70;;;;;;5017940;28;20030;-84
2023/02/21 04:38:39;;;;;;;6.20;1.98;;;10.20;56.70;;;;;;5016050;28;20562;-84
2023/02/21 04:41:05;;;;;;;5.30;2.20;;;10.20;56.70;;;;;;5016089;28;20112;-84
2023/02/21 04:43:31;;;;;;;5.45;2.40;;;10.20;56.70;;;;;;5017761;28;20491;-85
2023/02/21 04:45:57;;;;;;;5.85;1.90;;;10.20;56.60;;;;;;5016447;28;20113;-85
2023/02/21 04:48:23;;;;;;;6.55;2.30;;;10.20;56.60;;;;;;5016679;28;20061;-86
2023/02/21 04:50:48;;;;;;;4.10;2.10;;;10.20;56.50;;;;;;5016311;28;20120;-84
2023/02/21 04:53:14;;;;;;;6.85;2.60;;;10.20;56.50;;;;;;5016152;28;20135;-85
2023/02/21 04:55:40;;;;;;;4.55;2.40;;;10.20;56.50;;;;;;5017648;28;20065;-90
2023/02/21 04:58:06;;;;;;;5.05;2.30;;;10.20;56.40;;;;;;5016217;28;20030;-85
2023/02/21 05:00:32;;;;;;;3.10;1.85;;;10.20;56.40;;;;;;4996737;28;20488;-84
2023/02/21 05:02:57;;;;;;;4.57;2.50;;;10.20;56.40;;;;;;4997714;28;20023;-85
2023/02/21 05:05:23;;;;;;;11.43;2.38;;;10.20;56.60;;;;;;4996411;28;20385;-86
2023/02/21 05:07:49;;;;;;;4.10;1.90;;;10.20;56.60;;;;;;4996283;28;20116;-84
2023/02/21 05:10:16;;;;;;;6.57;2.20;;;10.20;56.60;;;;;;4997525;28;20437;-85
2023/02/21 05:12:42;;;;;;;11.32;2.38;;;10.20;56.40;;;;;;4997391;28;20026;-88
2023/02/21 05:15:08;;;;;;;10.63;2.42;;;10.30;56.50;;;;;;4996151;28;20150;-90
2023/02/21 05:17:34;;;;;;;5.55;2.10;;;10.30;56.40;;;;;;4996273;28;20023;-85
2023/02/21 05:20:00;;;;;;;4.28;2.10;;;10.30;56.40;;;;;;4996718;28;20027;-85
2023/02/21 05:22:26;;;;;;;3.28;2.00;;;10.20;56.30;;;;;;4996100;28;20433;-85
2023/02/21 05:24:52;;;;;;;7.10;2.67;;;10.20;56.30;;;;;;4996865;28;20018;-85
2023/02/21 05:27:19;;;;;;;4.72;2.20;;;10.20;56.20;;;;;;5000857;28;20034;-84
2023/02/21 05:29:50;;;;;;;4.50;2.17;;;10.20;56.20;;;;;;5016987;28;20634;-86
2023/02/21 05:32:18;;;;;;;6.13;2.42;;;10.20;56.20;;;;;;5016005;28;20022;-84
2023/02/21 05:34:45;;;;;;;3.85;1.98;;;10.20;56.20;;;;;;5016285;28;20022;-85
2023/02/21 05:37:12;;;;;;;3.67;1.92;;;10.20;56.10;;;;;;5016268;28;20073;-84
2023/02/21 05:39:38;;;;;;;3.90;2.13;;;10.20;56.10;;;;;;5015581;28;20133;-86
2023/02/21 05:42:04;;;;;;;5.32;2.17;;;10.30;56.00;;;;;;5015578;28;20475;-85
2023/02/21 05:44:30;;;;;;;3.72;2.08;;;10.20;56.00;;;;;;5015962;28;20026;-84
2023/02/21 05:46:55;;;;;;;3.83;1.83;;;10.20;56.00;;;;;;5019976;28;20057;-84
2023/02/21 05:49:21;;;;;;;5.93;2.35;;;10.20;56.00;;;;;;5019598;28;20030;-84
2023/02/21 05:51:47;;;;;;;6.03;2.72;;;10.20;56.00;;;;;;5016428;28;20052;-85
2023/02/21 05:54:17;;;;;;;5.32;2.40;;;10.20;56.00;;;;;;5015860;28;20036;-85
2023/02/21 05:56:45;;;;;;;6.45;3.65;;;10.30;56.10;;;;;;4999346;28;20112;-86
2023/02/21 05:59:12;;;;;;;7.50;3.28;;;10.20;56.00;;;;;;5017411;28;20029;-84
2023/02/21 06:01:38;;;;;;;14.13;4.15;;;10.20;56.10;;;;;;5016180;28;20088;-86
2023/02/21 06:04:06;;;;;;;11.25;3.63;;;10.20;56.10;;;;;;5015279;28;20028;-84
2023/02/21 06:06:33;;;;;;;6.68;3.47;;;10.20;56.10;;;;;;5014402;28;20025;-87
2023/02/21 06:08:58;;;;;;;8.98;3.13;;;10.20;56.10;;;;;;5015082;28;20026;-84
2023/02/21 06:11:32;;;;;;;8.50;3.10;;;10.20;56.20;;;;;;5014769;28;20036;-85
2023/02/21 06:13:59;;;;;;;6.88;3.03;;;10.30;56.20;;;;;;5015937;28;20026;-85
2023/02/21 06:16:27;;;;;;;8.00;3.05;;;10.30;56.10;;;;;;5015498;28;20100;-89
2023/02/21 06:18:55;;;;;;;4.85;3.03;;;10.30;56.10;;;;;;5014261;28;20022;-85
2023/02/21 06:21:22;;;;;;;4.30;2.58;;;10.40;56.10;;;;;;5014186;28;20056;-84
2023/02/21 06:23:48;;;;;;;8.80;3.13;;;10.40;56.10;;;;;;5014765;28;20029;-85
2023/02/21 06:26:15;;;;;;;11.50;2.72;;;10.40;56.10;;;;;;5013881;28;20034;-85
2023/02/21 06:28:41;;;;;;;4.00;2.13;;;10.40;56.10;;;;;;4996347;28;20035;-85
2023/02/21 06:31:07;;;;;;;5.85;2.75;;;10.40;56.00;;;;;;5003425;28;20210;-86
2023/02/21 06:33:33;;;;;;;11.85;2.90;;;10.40;56.00;;;;;;5014098;28;20068;-85
2023/02/21 06:36:04;;;;;;;8.63;2.63;;;10.40;56.00;;;;;;5013834;28;20571;-85
2023/02/21 06:38:30;;;;;;;9.30;3.10;;;10.40;56.00;;;;;;5013808;28;20427;-85
2023/02/21 06:40:56;;;;;;;6.00;2.08;;;10.40;56.00;;;;;;5014102;28;20022;-84
2023/02/21 06:43:22;;;;;;;6.68;2.67;;;10.40;56.10;;;;;;5013522;28;20036;-93
2023/02/21 06:45:50;;;;;;;4.63;2.33;;;10.50;56.10;;;;;;5013472;28;20076;-90
2023/02/21 06:48:17;;;;;;;5.57;2.95;;;10.40;56.00;;;;;;5013786;28;20567;-91
2023/02/21 06:50:43;;;;;;;7.68;3.03;;;10.50;56.10;;;;;;5015146;28;20045;-85
2023/02/21 06:53:09;;;;;;;5.47;2.53;;;10.60;56.60;;;;;;5014641;28;20082;-88
2023/02/21 06:55:36;;;;;;;6.70;3.00;;;10.60;56.00;;;;;;5015518;28;20030;-87
2023/02/21 06:58:02;;;;;;;7.95;3.30;;;10.60;56.00;;;;;;5014487;28;20026;-85
2023/02/21 07:00:28;;;;;;;6.05;2.75;;;10.60;56.10;;;;;;5014046;28;20030;-84
2023/02/21 07:02:54;;;;;;;5.32;2.85;;;10.70;56.10;;;;;;5014041;28;20033;-85
2023/02/21 07:05:20;;;;;;;11.60;3.58;;;10.60;56.10;;;;;;5014369;28;20064;-85
2023/02/21 07:07:46;;;;;;;4.85;2.80;;;10.70;56.10;;;;;;5014001;28;20018;-85
2023/02/21 07:10:12;;;;;;;8.20;2.85;;;10.70;56.00;;;;;;5014155;28;20056;-84
2023/02/21 07:12:38;;;;;;;10.35;3.17;;;10.80;56.00;;;;;;5013732;28;20088;-85
2023/02/21 07:15:05;;;;;;;7.28;3.25;;;10.80;56.00;;;;;;5014317;28;20054;-85
2023/02/21 07:17:31;;;;;;;9.75;3.33;;;10.80;56.00;;;;;;5014029;28;20542;-85
2023/02/21 07:19:57;;;;;;;8.95;3.10;;;10.90;55.90;;;;;;5014389;28;20026;-84
2023/02/21 07:22:24;;;;;;;18.27;3.63;;;10.90;55.70;;;;;;5014076;28;20424;-84
2023/02/21 07:24:54;;;;;;;10.63;3.17;;;11.00;55.70;;;;;;5013970;28;20073;-86
2023/02/21 07:27:21;;;;;;;9.05;3.20;;;11.00;55.70;;;;;;5010032;28;20502;-85
2023/02/21 07:29:50;;;;;;;6.53;2.67;;;11.10;55.60;;;;;;5005056;28;20054;-85
2023/02/21 07:32:16;;;;;;;8.35;3.63;;;11.10;55.70;;;;;;5013193;28;20032;-83
2023/02/21 07:34:43;;;;;;;17.30;3.25;;;11.20;55.60;;;;;;5013691;28;20054;-86
2023/02/21 07:37:10;;;;;;;14.20;3.47;;;11.20;55.40;;;;;;5013853;28;20072;-83
2023/02/21 07:39:36;;;;;;;8.40;3.40;;;11.20;55.30;;;;;;5013052;28;20038;-85
2023/02/21 07:42:03;;;;;;;5.97;2.85;;;11.30;55.40;;;;;;5013005;28;20432;-87
2023/02/21 07:44:29;;;;;;;8.90;3.10;;;11.30;55.30;;;;;;5010574;28;20081;-86
2023/02/21 07:46:56;;;;;;;6.93;3.40;;;11.40;55.10;;;;;;5016788;28;20026;-93
2023/02/21 07:49:22;;;;;;;6.78;3.13;;;11.40;55.20;;;;;;5015016;28;20034;-84
2023/02/21 07:51:49;;;;;;;9.52;3.22;;;11.50;55.20;;;;;;5014558;28;20365;-85
2023/02/21 07:54:15;;;;;;;6.93;3.40;;;11.60;54.90;;;;;;5015054;28;20441;-84
2023/02/21 07:56:45;;;;;;;7.78;3.45;;;11.60;54.90;;;;;;5013161;28;20022;-82
2023/02/21 07:59:11;;;;;;;16.17;3.00;;;11.70;54.90;;;;;;5014969;28;20021;-85
2023/02/21 08:01:38;;;;;;;10.02;3.22;;;11.80;55.00;;;;;;5018359;28;20037;-86
2023/02/21 08:04:04;;;;;;;6.47;2.80;;;11.80;54.70;;;;;;5018857;28;20018;-83
2023/02/21 08:06:30;;;;;;;5.80;2.40;;;11.90;54.70;;;;;;5016163;28;20098;-86
2023/02/21 08:08:56;;;;;;;5.93;3.40;;;12.00;54.70;;;;;;5015785;28;20030;-85
2023/02/21 08:11:22;;;;;;;14.30;3.72;;;12.00;54.50;;;;;;5021165;28;20041;-86
2023/02/21 08:13:51;;;;;;;6.45;3.20;;;12.10;54.40;;;;;;5022201;28;20026;-90
2023/02/21 08:16:17;;;;;;;7.85;3.03;;;12.20;54.50;;;;;;5023914;28;20029;-84
2023/02/21 08:18:49;;;;;;;10.65;3.22;;;12.30;54.50;;;;;;5021130;28;20569;-85
2023/02/21 08:21:16;;;;;;;8.68;3.63;;;12.30;54.20;;;;;;5023124;28;20028;-85
2023/02/21 08:26:17;;;;;;;13.60;4.07;;;12.40;54.10;;;;;;5100563;23;20064;-76
2023/02/21 08:28:43;;;;;;;8.77;3.63;;;12.50;54.10;;;;;;5032411;28;20397;-76
2023/02/21 08:31:12;;;;;;;16.60;3.67;;;12.50;54.10;;;;;;5032592;28;20017;-76
2023/02/21 08:33:38;;;;;;;8.13;3.90;;;12.60;54.10;;;;;;5032561;28;20018;-76
2023/02/21 08:36:04;;;;;;;11.02;3.50;;;12.70;54.20;;;;;;5024623;28;20536;-76
2023/02/21 08:38:30;;;;;;;8.85;3.83;;;12.70;54.20;;;;;;5012802;28;20085;-76
2023/02/21 08:40:56;;;;;;;13.68;4.22;;;12.80;54.20;;;;;;5012765;28;20049;-76
2023/02/21 08:43:23;;;;;;;12.45;3.78;;;12.90;54.10;;;;;;5026681;28;20115;-76
2023/02/21 08:45:49;;;;;;;8.20;3.92;;;12.90;54.00;;;;;;5036369;28;20032;-76
2023/02/21 08:48:15;;;;;;;8.18;4.03;;;13.00;54.10;;;;;;5036568;28;20025;-76
2023/02/21 08:50:41;;;;;;;8.65;4.07;;;13.00;54.00;;;;;;5036279;28;20025;-76
2023/02/21 08:53:07;;;;;;;11.18;3.75;;;13.10;54.10;;;;;;5035646;28;20025;-76
2023/02/21 08:55:33;;;;;;;9.15;4.22;;;13.20;54.10;;;;;;5036242;28;20040;-76
2023/02/21 08:57:59;;;;;;;7.72;4.43;;;13.30;54.30;;;;;;5034937;28;20025;-76
2023/02/21 09:00:27;;;;;;;13.77;4.28;;;13.30;54.20;;;;;;5036046;28;20029;-76
2023/02/21 09:02:53;;;;;;;7.60;3.75;;;13.40;54.30;;;;;;5034523;28;20040;-76
2023/02/21 09:05:28;;;;;;;9.40;3.63;;;13.50;54.40;;;;;;5036031;28;20025;-76
2023/02/21 09:07:57;;;;;;;7.47;3.70;;;13.60;54.20;;;;;;5035460;28;20037;-76
2023/02/21 09:10:25;;;;;;;8.20;3.97;;;13.70;54.20;;;;;;5035887;28;20039;-76
2023/02/21 09:12:51;;;;;;;8.75;3.40;;;13.80;54.10;;;;;;5035948;28;20021;-76
2023/02/21 09:15:17;;;;;;;8.75;4.10;;;13.90;54.00;;;;;;5035527;28;20100;-76
2023/02/21 09:17:44;;;;;;;17.33;3.25;;;14.00;54.00;;;;;;5036008;28;20025;-76
2023/02/21 09:20:14;;;;;;;6.78;3.28;;;14.10;54.10;;;;;;5035849;28;20116;-76
2023/02/21 09:22:46;;;;;;;10.32;2.72;;;14.30;54.00;;;;;;5036025;28;20064;-77
2023/02/21 09:25:12;;;;;;;6.68;2.63;;;14.50;54.20;;;;;;5034844;28;20053;-76
2023/02/21 09:27:39;;;;;;;8.45;3.05;;;14.70;53.80;;;;;;5035605;28;20030;-76
2023/02/21 09:30:16;;;;;;;8.05;2.53;;;14.80;53.20;;;;;;5035522;28;20022;-76
2023/02/21 09:32:42;;;;;;;17.38;3.08;;;15.00;53.10;;;;;;5035630;28;20049;-76
2023/02/21 09:35:12;;;;;;;17.77;2.42;;;15.20;52.60;;;;;;5035763;28;20049;-77
2023/02/21 09:37:40;;;;;;;19.85;3.22;;;15.30;52.70;;;;;;5024425;28;20387;-76
2023/02/21 09:40:29;;;;;;;7.10;1.80;;;15.40;52.40;;;;;;5015596;28;20475;-76
2023/02/21 09:42:57;;;;;;;6.47;2.72;;;15.40;52.30;;;;;;5015810;28;20032;-76
2023/02/21 09:45:25;;;;;;;6.57;2.00;;;15.60;52.40;;;;;;5015453;28;20420;-77
2023/02/21 09:47:54;;;;;;;4.10;2.20;;;15.70;52.30;;;;;;5015410;28;20483;-77
2023/02/21 09:50:29;;;;;;;4.70;1.80;;;15.80;52.00;;;;;;5016430;28;20029;-76
2023/02/21 09:52:57;;;;;;;3.25;1.60;;;15.80;52.10;;;;;;5034236;28;20112;-77
2023/02/21 09:55:26;;;;;;;5.13;1.60;;;16.00;51.70;;;;;;5032735;28;20026;-76
2023/02/21 09:57:52;;;;;;;3.97;1.65;;;16.00;51.50;;;;;;5033827;28;20025;-76
2023/02/21 10:00:21;;;;;;;3.28;1.35;;;16.10;51.10;;;;;;5034914;28;20033;-76
2023/02/21 10:03:12;;;;;;;2.63;1.73;;;16.10;51.30;;;;;;5035062;28;20025;-76
2023/02/21 10:06:12;;;;;;;6.55;1.75;;;16.00;51.00;;;;;;5034936;28;20156;-77
2023/02/21 10:08:48;;;;;;;4.15;1.88;;;16.10;51.20;;;;;;5031490;28;20048;-77
2023/02/21 10:11:26;;;;;;;5.78;1.98;;;16.20;51.10;;;;;;5033189;28;20501;-77
2023/02/21 10:14:17;;;;;;;4.57;1.92;;;16.20;51.00;;;;;;5035095;28;20052;-77
2023/02/21 10:17:21;;;;;;;3.15;1.98;;;16.20;51.10;;;;;;5030481;28;20021;-77
2023/02/21 10:19:52;;;;;;;8.30;2.40;;;16.30;51.00;;;;;;4992263;28;20034;-77
2023/02/21 10:22:22;;;;;;;4.85;2.33;;;16.40;51.00;;;;;;5015432;28;20026;-76
2023/02/21 10:24:49;;;;;;;5.00;2.15;;;16.40;50.80;;;;;;5016895;28;20041;-77
2023/02/21 10:27:24;;;;;;;5.10;2.10;;;16.40;50.70;;;;;;5034435;28;20087;-77
2023/02/21 10:29:56;;;;;;;4.25;1.95;;;16.50;50.70;;;;;;5034449;28;20056;-77
2023/02/21 10:32:24;;;;;;;4.80;1.92;;;16.50;50.70;;;;;;5033248;28;20478;-77
2023/02/21 10:34:51;;;;;;;3.65;2.10;;;16.60;50.80;;;;;;5033180;28;20025;-77
2023/02/21 10:37:41;;;;;;;4.70;2.50;;;16.70;50.50;;;;;;5032788;28;20029;-76
2023/02/21 10:40:26;;;;;;;4.00;2.38;;;16.70;50.30;;;;;;5034585;28;20025;-77
2023/02/21 10:43:01;;;;;;;5.65;2.50;;;16.70;50.20;;;;;;5034483;28;20079;-77
2023/02/21 10:45:41;;;;;;;3.38;2.25;;;16.70;50.20;;;;;;5034498;28;20045;-77
2023/02/21 10:48:09;;;;;;;3.55;2.15;;;16.70;50.20;;;;;;5032752;28;20025;-77
2023/02/21 10:51:12;;;;;;;4.40;2.63;;;16.70;50.30;;;;;;5034041;28;20453;-77
2023/02/21 10:53:40;;;;;;;5.90;2.83;;;16.80;50.30;;;;;;5031969;28;20108;-77
2023/02/21 10:56:18;;;;;;;5.63;2.65;;;16.80;50.10;;;;;;5032790;28;20018;-77
2023/02/21 10:58:56;;;;;;;6.20;3.00;;;16.80;49.80;;;;;;5034048;28;20030;-77
2023/02/21 11:01:25;;;;;;;4.80;2.50;;;16.70;49.60;;;;;;5032562;28;20028;-77
2023/02/21 11:03:54;;;;;;;4.72;2.58;;;16.70;50.00;;;;;;5031174;28;20030;-77
2023/02/21 11:06:36;;;;;;;6.18;3.05;;;16.60;49.90;;;;;;5027822;28;20021;-76
2023/02/21 11:09:22;;;;;;;8.18;2.72;;;16.60;50.10;;;;;;5033386;28;20025;-76
2023/02/21 11:12:15;;;;;;;6.63;2.58;;;16.50;50.00;;;;;;5031793;28;20053;-77
2023/02/21 11:14:42;;;;;;;5.18;2.90;;;16.40;50.10;;;;;;5033363;28;20100;-76
2023/02/21 11:17:13;;;;;;;6.45;2.80;;;16.30;50.10;;;;;;5033245;28;20032;-76
2023/02/21 11:19:49;;;;;;;7.47;2.85;;;16.20;50.40;;;;;;5031819;28;20025;-76
2023/02/21 11:22:20;;;;;;;5.97;2.70;;;16.10;50.60;;;;;;5033077;28;20413;-76
2023/02/21 11:24:51;;;;;;;4.20;2.38;;;16.10;50.90;;;;;;5033040;28;20128;-76
2023/02/21 11:27:18;;;;;;;5.05;2.50;;;16.00;51.10;;;;;;5033257;28;20359;-77
2023/02/21 11:29:46;;;;;;;8.07;2.67;;;15.90;51.20;;;;;;5032979;28;20494;-76
2023/02/21 11:32:22;;;;;;;8.23;2.47;;;15.80;51.30;;;;;;5033115;28;20064;-77
2023/02/21 11:34:49;;;;;;;4.28;2.50;;;15.80;51.60;;;;;;5032909;28;20569;-76
2023/02/21 11:37:15;;;;;;;8.70;2.40;;;15.70;51.70;;;;;;5032577;28;20025;-76
2023/02/21 11:39:42;;;;;;;7.65;2.78;;;15.70;51.90;;;;;;5031706;28;20025;-76
2023/02/21 11:42:30;;;;;;;4.82;2.33;;;15.60;51.80;;;;;;5032893;28;20021;-76
2023/02/21 11:45:27;;;;;;;5.38;2.50;;;15.60;51.80;;;;;;5032953;28;20113;-76
2023/02/21 11:48:02;;;;;;;5.63;2.67;;;15.60;51.90;;;;;;5032926;28;20087;-77
2023/02/21 11:50:46;;;;;;;5.05;2.65;;;15.70;51.90;;;;;;5031571;28;20045;-76
2023/02/21 11:53:24;;;;;;;4.40;2.25;;;15.60;51.80;;;;;;5032955;28;20025;-76
2023/02/21 11:56:17;;;;;;;8.10;2.72;;;15.70;52.60;;;;;;5032844;28;20502;-76
2023/02/21 11:59:05;;;;;;;4.25;2.22;;;15.70;51.90;;;;;;5029575;28;20018;-76
2023/02/21 12:01:48;;;;;;;5.60;2.40;;;15.80;51.50;;;;;;5029150;28;20140;-77
2023/02/21 12:04:29;;;;;;;2.95;1.98;;;15.90;51.90;;;;;;5018456;28;20014;-77
2023/02/21 12:07:06;;;;;;;13.60;2.58;;;15.90;51.10;;;;;;5031752;28;20045;-76
2023/02/21 12:09:38;;;;;;;11.15;2.40;;;16.00;50.90;;;;;;5032943;28;20060;-76
2023/02/21 12:12:28;;;;;;;7.05;2.38;;;16.00;50.70;;;;;;5033008;28;20075;-76
2023/02/21 12:14:59;;;;;;;5.03;2.47;;;16.10;50.60;;;;;;5033032;28;20037;-76
2023/02/21 12:17:45;;;;;;;5.20;2.17;;;16.10;50.50;;;;;;5033423;28;20022;-77
2023/02/21 12:20:33;;;;;;;10.65;2.67;;;16.20;50.30;;;;;;5038394;28;20160;-76
2023/02/21 12:23:14;;;;;;;5.35;2.10;;;16.20;50.20;;;;;;5037808;28;20026;-78
2023/02/21 12:25:50;;;;;;;7.95;2.20;;;16.30;50.20;;;;;;5037805;28;20383;-77
2023/02/21 12:28:47;;;;;;;5.07;2.03;;;16.20;49.90;;;;;;5035521;28;20048;-76
2023/02/21 12:31:23;;;;;;;6.00;2.17;;;16.30;50.00;;;;;;5018823;28;20359;-75
2023/02/21 12:34:27;;;;;;;10.02;2.35;;;16.40;50.00;;;;;;5017018;28;20026;-76
2023/02/21 12:37:21;;;;;;;5.85;1.75;;;16.30;49.70;;;;;;5026561;28;20041;-76
2023/02/21 12:39:59;;;;;;;7.25;2.13;;;16.40;49.70;;;;;;5036531;28;20029;-76
2023/02/21 12:42:42;;;;;;;18.10;2.65;;;16.30;49.80;;;;;;5036597;28;20385;-76
2023/02/21 12:45:36;;;;;;;6.60;2.28;;;16.40;49.90;;;;;;5036737;28;20025;-76
2023/02/21 12:48:05;;;;;;;8.88;2.58;;;16.40;49.80;;;;;;5033944;28;20025;-76
2023/02/21 12:50:42;;;;;;;6.30;2.13;;;16.40;49.70;;;;;;5034982;28;20063;-75
2023/02/21 12:53:13;;;;;;;6.15;2.53;;;16.40;49.60;;;;;;5036331;28;20474;-76
2023/02/21 12:56:01;;;;;;;11.73;2.58;;;16.40;49.40;;;;;;5036294;28;20021;-76
2023/02/21 12:58:32;;;;;;;17.15;2.85;;;16.40;49.30;;;;;;5035699;28;20040;-76
2023/02/21 13:01:09;;;;;;;3.35;2.08;;;16.40;49.50;;;;;;5036107;28;20021;-76
2023/02/21 13:03:43;;;;;;;5.68;2.53;;;16.40;49.50;;;;;;5036232;28;20033;-76
2023/02/21 13:06:12;;;;;;;8.27;2.28;;;16.40;49.40;;;;;;5035018;28;20026;-76
2023/02/21 13:08:57;;;;;;;2.72;1.73;;;16.50;49.40;;;;;;5034891;28;20441;-76
2023/02/21 13:11:31;;;;;;;6.97;2.35;;;16.50;49.50;;;;;;5035878;28;20471;-76
2023/02/21 13:13:58;;;;;;;4.78;2.33;;;16.40;49.20;;;;;;5033727;28;20029;-75
2023/02/21 13:16:25;;;;;;;3.38;2.03;;;16.50;50.00;;;;;;5034298;28;20140;-76
2023/02/21 13:18:58;;;;;;;4.20;2.05;;;16.50;49.50;;;;;;5035543;28;20033;-76
2023/02/21 13:21:51;;;;;;;6.00;1.80;;;16.50;49.40;;;;;;5035618;28;20022;-75
2023/02/21 13:24:35;;;;;;;4.10;2.00;;;16.60;49.50;;;;;;5035485;28;20763;-75
2023/02/21 13:27:04;;;;;;;3.42;1.67;;;16.50;49.60;;;;;;5035734;28;20445;-76
2023/02/21 13:29:36;;;;;;;7.18;2.20;;;16.60;49.80;;;;;;5035145;28;20444;-76
2023/02/21 13:32:12;;;;;;;8.90;1.77;;;16.60;49.70;;;;;;5033689;28;20029;-76
2023/02/21 13:34:41;;;;;;;4.70;1.80;;;16.60;49.70;;;;;;5029669;28;20029;-76
2023/02/21 13:37:21;;;;;;;4.13;2.00;;;16.60;49.70;;;;;;5034018;28;20052;-76
2023/02/21 13:39:54;;;;;;;4.38;1.50;;;16.60;49.70;;;;;;5034055;28;20029;-76
2023/02/21 13:42:22;;;;;;;4.35;1.83;;;16.60;49.80;;;;;;5035217;28;20033;-75
2023/02/21 13:45:13;;;;;;;10.02;1.80;;;16.60;49.80;;;;;;5035337;28;20175;-76
2023/02/21 13:47:57;;;;;;;6.90;1.95;;;16.60;49.90;;;;;;5034874;28;20037;-76
2023/02/21 13:50:40;;;;;;;4.00;2.15;;;16.70;49.90;;;;;;5033627;28;20395;-76
2023/02/21 13:53:32;;;;;;;2.90;1.50;;;16.70;49.80;;;;;;5033832;28;20029;-76
2023/02/21 13:55:58;;;;;;;2.50;1.80;;;16.70;49.60;;;;;;5035108;28;20024;-77
2023/02/21 13:59:19;;;;;;;14.25;2.72;;;16.80;49.70;;;;;;5033491;28;20017;-77
2023/02/21 14:01:49;;;;;;;4.47;1.77;;;16.80;50.00;;;;;;4974358;28;20093;-76
2023/02/21 14:04:48;;;;;;;3.95;1.60;;;16.80;49.80;;;;;;4974241;28;20550;-77
2023/02/21 14:07:14;;;;;;;4.00;1.80;;;16.80;49.70;;;;;;4967156;28;20026;-76
2023/02/21 14:09:41;;;;;;;7.90;2.25;;;16.80;49.70;;;;;;4974363;28;20598;-77
2023/02/21 14:12:25;;;;;;;5.45;2.05;;;16.80;49.80;;;;;;4973824;28;20106;-76
2023/02/21 14:15:05;;;;;;;;;;;16.80;49.70;;;;;;4974379;28;20468;-76
2023/02/21 14:17:35;;;;;;;3.25;1.52;;;16.80;50.00;;;;;;4974223;28;19906;-76
2023/02/21 14:20:04;;;;;;;3.15;1.85;;;16.80;49.80;;;;;;4957458;28;20042;-77
2023/02/21 14:22:31;;;;;;;2.80;1.55;;;16.80;49.90;;;;;;4974077;28;20042;-78
2023/02/21 14:25:27;;;;;;;3.90;1.63;;;16.80;49.70;;;;;;4957229;28;20054;-77
2023/02/21 14:27:53;;;;;;;4.13;1.52;;;16.70;49.80;;;;;;4953313;28;20035;-77
2023/02/21 14:30:33;;;;;;;1.35;1.05;;;16.80;49.90;;;;;;4973549;28;20532;-77
2023/02/21 14:33:21;;;;;;;2.53;1.55;;;16.80;50.00;;;;;;4973018;28;20122;-77
2023/02/21 14:36:01;;;;;;;2.90;1.52;;;16.80;49.90;;;;;;4993418;28;20471;-76
2023/02/21 14:38:31;;;;;;;1.63;1.13;;;16.80;49.90;;;;;;5014662;28;20030;-77
2023/02/21 14:41:34;;;;;;;2.75;1.40;;;16.90;49.90;;;;;;5014043;28;20022;-77
2023/02/21 14:44:19;;;;;;;1.67;1.25;;;16.80;50.00;;;;;;5014836;28;20049;-77
2023/02/21 14:47:11;;;;;;;3.78;1.60;;;16.90;49.90;;;;;;5014425;28;20021;-77
2023/02/21 14:50:26;;;;;;;5.47;1.98;;;16.80;49.90;;;;;;4987095;28;20084;-77
2023/02/21 14:53:16;;;;;;;4.63;1.70;;;16.90;49.90;;;;;;5011043;28;20479;-77
2023/02/21 14:56:06;;;;;;;4.60;1.95;;;16.90;50.00;;;;;;5014728;28;20113;-77
2023/02/21 14:58:35;;;;;;;2.85;2.03;;;17.00;49.90;;;;;;5014427;28;20022;-77
2023/02/21 15:01:24;;;;;;;5.97;1.65;;;17.00;49.80;;;;;;5016684;28;20490;-77
2023/02/21 15:04:13;;;;;;;6.97;1.73;;;17.00;49.70;;;;;;5034192;28;20022;-77
2023/02/21 15:06:43;;;;;;;3.88;2.00;;;17.10;49.70;;;;;;5032613;28;20037;-77
2023/02/21 15:09:18;;;;;;;2.88;1.75;;;17.10;49.70;;;;;;5033689;28;20017;-77
2023/02/21 15:11:46;;;;;;;3.88;1.55;;;17.20;49.70;;;;;;5013967;28;20022;-77
2023/02/21 15:14:21;;;;;;;3.72;1.70;;;17.20;49.50;;;;;;5014010;28;20068;-77
2023/02/21 15:16:54;;;;;;;5.22;1.50;;;17.20;49.60;;;;;;5012788;28;20053;-77
2023/02/21 15:19:29;;;;;;;2.38;1.58;;;17.30;49.50;;;;;;5014170;28;20064;-77
2023/02/21 15:22:19;;;;;;;2.95;1.70;;;17.20;49.40;;;;;;5012486;28;20053;-77
2023/02/21 15:25:07;;;;;;;2.40;1.17;;;17.30;49.40;;;;;;5012243;28;20046;-77
2023/02/21 15:27:51;;;;;;;1.92;1.30;;;17.30;49.30;;;;;;5013706;28;20026;-77
2023/02/21 15:30:23;;;;;;;3.28;1.60;;;17.30;49.20;;;;;;5012501;28;20030;-77
2023/02/21 15:33:12;;;;;;;8.77;1.55;;;17.30;49.30;;;;;;5030552;28;20155;-77